createdAt,value
2018-07-17T03:01:09.686Z,14.43
2018-07-17T03:02:10.047Z,14.41
2018-07-17T03:03:10.060Z,14.55
2018-07-17T03:04:10.427Z,14.54
2018-07-17T03:05:10.024Z,14.43
2018-07-17T03:06:10.325Z,14.54
2018-07-17T03:07:11.040Z,14.53
2018-07-17T03:08:10.991Z,14.58
2018-07-17T03:09:11.158Z,14.53
2018-07-17T03:10:11.704Z,14.62
2018-07-17T03:11:11.524Z,14.62
2018-07-17T03:12:09.250Z,14.58
2018-07-17T03:13:09.310Z,14.63
2018-07-17T03:14:09.464Z,14.60
2018-07-17T03:15:09.644Z,14.79
2018-07-17T03:16:09.851Z,14.77
2018-07-17T03:17:09.970Z,14.84
2018-07-17T03:18:10.109Z,14.82
2018-07-17T03:19:10.359Z,14.88
2018-07-17T03:20:10.433Z,14.78
2018-07-17T03:21:10.641Z,14.78
2018-07-17T03:22:10.830Z,14.81
2018-07-17T03:23:10.944Z,14.79
2018-07-17T03:24:11.161Z,14.77
2018-07-17T03:25:11.313Z,14.66
2018-07-17T03:26:11.453Z,14.70
2018-07-17T03:27:11.663Z,14.58
2018-07-17T03:28:11.810Z,14.65
2018-07-17T03:29:12.008Z,14.63
2018-07-17T03:30:12.901Z,14.68
2018-07-17T03:31:12.417Z,14.72
2018-07-17T03:32:12.620Z,14.58
2018-07-17T03:33:12.780Z,14.65
2018-07-17T03:34:13.023Z,14.54
2018-07-17T03:35:13.097Z,14.53
2018-07-17T03:36:13.243Z,14.54
2018-07-17T03:37:13.385Z,14.62
2018-07-17T03:38:13.541Z,14.60
2018-07-17T03:39:13.700Z,14.55
2018-07-17T03:40:13.898Z,14.63
2018-07-17T03:41:14.137Z,14.48
2018-07-17T03:42:14.207Z,14.53
2018-07-17T03:43:14.400Z,14.51
2018-07-17T03:44:14.622Z,14.51
2018-07-17T03:45:14.796Z,14.58
2018-07-17T03:46:14.897Z,14.43
2018-07-17T03:47:15.111Z,14.54
2018-07-17T03:48:15.286Z,14.51
2018-07-17T03:49:15.415Z,14.54
2018-07-17T03:50:15.652Z,14.48
2018-07-17T03:51:15.813Z,14.53
2018-07-17T03:52:16.008Z,14.53
2018-07-17T03:53:16.215Z,14.58
2018-07-17T03:54:16.419Z,14.59
2018-07-17T03:55:16.608Z,14.44
2018-07-17T03:56:16.782Z,14.53
2018-07-17T03:57:17.061Z,14.53
2018-07-17T03:58:17.211Z,14.51
2018-07-17T03:59:17.337Z,14.63
2018-07-17T04:00:17.520Z,14.48
2018-07-17T04:01:18.468Z,14.58
2018-07-17T04:02:17.813Z,14.55
2018-07-17T04:03:18.012Z,14.60
2018-07-17T04:04:18.217Z,14.54
2018-07-17T04:05:18.384Z,14.62
2018-07-17T04:06:18.473Z,14.55
2018-07-17T04:07:19.243Z,14.69
2018-07-17T04:10:02.967Z,14.79
2018-07-17T04:11:18.229Z,14.69
2018-07-17T04:12:04.035Z,14.72
2018-07-17T04:13:03.548Z,14.84
2018-07-17T04:14:04.482Z,14.79
2018-07-17T04:21:34.282Z,14.60
2018-07-17T04:28:21.534Z,14.59
2018-07-17T04:29:21.993Z,14.68
2018-07-17T04:30:24.040Z,14.68
2018-07-17T04:31:21.697Z,14.78
2018-07-17T04:32:21.872Z,14.84
2018-07-17T04:33:21.994Z,14.77
2018-07-17T04:34:22.221Z,14.69
2018-07-17T04:35:22.417Z,14.60
2018-07-17T04:36:22.541Z,14.54
2018-07-17T04:37:22.713Z,14.47
2018-07-17T04:38:22.900Z,14.60
2018-07-17T04:39:23.071Z,14.62
2018-07-17T04:40:23.199Z,14.50
2018-07-17T04:41:23.421Z,14.54
2018-07-17T04:42:23.536Z,14.51
2018-07-17T04:43:23.644Z,14.53
2018-07-17T04:44:23.861Z,14.62
2018-07-17T04:45:24.090Z,14.51
2018-07-17T04:46:24.155Z,14.58
2018-07-17T04:47:24.321Z,14.55
2018-07-17T04:48:24.435Z,14.62
2018-07-17T04:49:24.615Z,14.66
2018-07-17T04:50:24.848Z,14.69
2018-07-17T04:51:24.958Z,14.68
2018-07-17T04:52:25.211Z,14.69
2018-07-17T04:53:25.421Z,14.73
2018-07-17T04:54:25.497Z,14.82
2018-07-17T04:55:25.747Z,14.85
2018-07-17T04:56:25.882Z,14.85
2018-07-17T04:57:26.087Z,14.88
2018-07-17T04:58:26.236Z,14.94
2018-07-17T04:59:26.392Z,15.04
2018-07-17T05:00:26.618Z,14.92
2018-07-17T05:01:26.723Z,14.99
2018-07-17T05:02:26.873Z,15.09
2018-07-17T05:03:27.066Z,15.06
2018-07-17T05:04:27.214Z,15.10
2018-07-17T05:05:27.376Z,15.09
2018-07-17T05:06:27.552Z,15.22
2018-07-17T05:07:27.701Z,15.21
2018-07-17T05:08:27.907Z,15.37
2018-07-17T05:09:28.082Z,15.35
2018-07-17T05:10:28.148Z,15.43
2018-07-17T05:11:28.336Z,15.46
2018-07-17T05:12:28.556Z,15.49
2018-07-17T05:13:28.676Z,15.54
2018-07-17T05:14:28.861Z,15.62
2018-07-17T05:15:29.065Z,15.52
2018-07-17T05:16:29.238Z,15.57
2018-07-17T05:17:29.465Z,15.58
2018-07-17T05:18:29.556Z,15.59
2018-07-17T05:19:29.821Z,15.65
2018-07-17T05:20:29.949Z,15.65
2018-07-17T05:21:30.200Z,15.68
2018-07-17T05:22:30.242Z,15.76
2018-07-17T05:23:30.462Z,15.82
2018-07-17T05:24:31.528Z,15.86
2018-07-17T05:25:30.836Z,15.90
2018-07-17T05:26:30.971Z,15.91
2018-07-17T05:27:31.121Z,16.00
2018-07-17T05:28:31.323Z,16.00
2018-07-17T05:29:31.533Z,16.09
2018-07-17T05:30:31.707Z,16.10
2018-07-17T05:31:34.815Z,16.10
2018-07-17T05:32:31.961Z,16.16
2018-07-17T05:33:32.127Z,16.26
2018-07-17T05:34:32.299Z,16.23
2018-07-17T05:35:32.554Z,16.23
2018-07-17T05:36:32.634Z,16.32
2018-07-17T05:37:32.800Z,16.35
2018-07-17T05:38:32.942Z,16.47
2018-07-17T05:39:33.182Z,16.57
2018-07-17T05:40:33.288Z,16.51
2018-07-17T05:41:33.477Z,16.57
2018-07-17T05:42:33.633Z,16.57
2018-07-17T05:43:33.866Z,16.68
2018-07-17T05:44:34.009Z,16.69
2018-07-17T05:45:34.162Z,16.71
2018-07-17T05:46:34.474Z,16.78
2018-07-17T05:47:34.548Z,16.81
2018-07-17T05:48:34.753Z,16.96
2018-07-17T05:49:34.993Z,17.01
2018-07-17T05:50:35.130Z,17.19
2018-07-17T05:51:35.233Z,17.14
2018-07-17T05:52:35.474Z,17.29
2018-07-17T05:53:35.602Z,17.33
2018-07-17T05:54:35.718Z,17.33
2018-07-17T05:55:35.902Z,17.38
2018-07-17T05:56:36.122Z,17.51
2018-07-17T05:57:36.333Z,17.59
2018-07-17T05:58:36.441Z,17.70
2018-07-17T05:59:36.666Z,17.79
2018-07-17T06:00:36.814Z,17.94
2018-07-17T06:01:36.982Z,17.94
2018-07-17T06:02:37.198Z,18.01
2018-07-17T06:03:37.272Z,18.07
2018-07-17T06:04:37.513Z,18.07
2018-07-17T06:05:37.713Z,18.20
2018-07-17T06:06:37.850Z,18.37
2018-07-17T06:07:38.060Z,18.37
2018-07-17T06:08:38.208Z,18.50
2018-07-17T06:09:38.332Z,18.53
2018-07-17T06:10:38.574Z,18.55
2018-07-17T06:11:38.728Z,18.62
2018-07-17T06:12:38.952Z,18.65
2018-07-17T06:13:39.030Z,18.66
2018-07-17T06:14:39.220Z,18.80
2018-07-17T06:15:39.322Z,18.89
2018-07-17T06:16:39.549Z,18.98
2018-07-17T06:17:39.767Z,19.02
2018-07-17T06:18:39.867Z,19.02
2018-07-17T06:19:40.055Z,19.11
2018-07-17T06:20:40.229Z,19.04
2018-07-17T06:21:40.449Z,19.09
2018-07-17T06:22:40.538Z,19.19
2018-07-17T06:23:40.716Z,19.22
2018-07-17T06:24:40.902Z,19.31
2018-07-17T06:25:41.085Z,19.37
2018-07-17T06:26:41.221Z,19.36
2018-07-17T06:27:41.439Z,19.44
2018-07-17T06:28:41.573Z,19.47
2018-07-17T06:29:41.706Z,19.62
2018-07-17T06:30:41.857Z,19.59
2018-07-17T06:31:42.103Z,19.66
2018-07-17T06:32:42.252Z,19.74
2018-07-17T06:33:42.508Z,19.79
2018-07-17T06:34:42.640Z,19.94
2018-07-17T06:35:42.849Z,20.02
2018-07-17T06:36:43.037Z,20.11
2018-07-17T06:37:43.135Z,20.06
2018-07-17T06:38:44.066Z,20.11
2018-07-17T06:39:43.460Z,20.21
2018-07-17T06:40:43.683Z,20.19
2018-07-17T06:41:43.767Z,20.21
2018-07-17T06:42:44.065Z,20.21
2018-07-17T06:43:44.162Z,20.28
2018-07-17T06:44:44.526Z,20.29
2018-07-17T06:45:44.597Z,20.48
2018-07-17T06:46:44.886Z,20.55
2018-07-17T06:47:44.874Z,20.65
2018-07-17T06:48:45.035Z,20.74
2018-07-17T06:49:45.172Z,20.75
2018-07-17T06:50:45.372Z,20.82
2018-07-17T06:51:45.497Z,20.85
2018-07-17T06:52:45.690Z,20.93
2018-07-17T06:53:45.876Z,20.99
2018-07-17T06:54:46.022Z,20.97
2018-07-17T06:55:46.225Z,21.07
2018-07-17T06:56:46.357Z,21.12
2018-07-17T06:57:46.558Z,21.14
2018-07-17T06:58:46.714Z,21.14
2018-07-17T06:59:46.903Z,21.21
2018-07-17T07:00:47.150Z,21.36
2018-07-17T07:01:47.352Z,21.45
2018-07-17T07:02:47.557Z,21.50
2018-07-17T07:03:47.631Z,21.58
2018-07-17T07:04:47.904Z,21.73
2018-07-17T07:05:47.985Z,21.70
2018-07-17T07:06:48.118Z,21.79
2018-07-17T07:07:48.284Z,21.92
2018-07-17T07:08:48.495Z,22.00
2018-07-17T07:09:48.665Z,21.98
2018-07-17T07:10:48.808Z,22.13
2018-07-17T07:11:49.071Z,22.28
2018-07-17T07:12:49.192Z,22.33
2018-07-17T07:13:49.400Z,22.43
2018-07-17T07:14:49.462Z,22.45
2018-07-17T07:15:49.740Z,22.54
2018-07-17T07:16:49.901Z,22.53
2018-07-17T07:17:50.066Z,22.62
2018-07-17T07:18:50.169Z,22.51
2018-07-17T07:19:50.394Z,22.85
2018-07-17T07:20:50.599Z,22.90
2018-07-17T07:21:50.699Z,22.98
2018-07-17T07:22:50.884Z,23.09
2018-07-17T07:23:51.133Z,23.10
2018-07-17T07:24:51.282Z,23.25
2018-07-17T07:25:51.475Z,23.41
2018-07-17T07:26:51.651Z,23.43
2018-07-17T07:27:51.829Z,23.54
2018-07-17T07:28:52.039Z,23.50
2018-07-17T07:29:52.211Z,23.71
2018-07-17T07:30:52.407Z,23.76
2018-07-17T07:31:52.475Z,23.86
2018-07-17T07:32:52.642Z,23.88
2018-07-17T07:33:52.881Z,23.88
2018-07-17T07:34:53.034Z,24.06
2018-07-17T07:35:53.145Z,24.20
2018-07-17T07:36:53.366Z,24.20
2018-07-17T07:37:53.571Z,24.28
2018-07-17T07:38:53.699Z,24.36
2018-07-17T07:39:53.929Z,24.45
2018-07-17T07:40:54.032Z,24.53
2018-07-17T07:41:54.194Z,24.55
2018-07-17T07:42:54.499Z,24.74
2018-07-17T07:43:54.548Z,24.77
2018-07-17T07:44:54.714Z,24.78
2018-07-17T07:45:54.913Z,24.81
2018-07-17T07:46:55.008Z,24.85
2018-07-17T07:47:55.212Z,24.93
2018-07-17T07:48:55.431Z,25.06
2018-07-17T07:49:55.593Z,25.08
2018-07-17T07:50:55.794Z,25.06
2018-07-17T07:51:55.924Z,25.04
2018-07-17T07:52:56.125Z,25.10
2018-07-17T07:53:56.324Z,25.13
2018-07-17T07:54:56.438Z,25.23
2018-07-17T07:55:56.670Z,25.31
2018-07-17T07:56:56.765Z,25.44
2018-07-17T07:57:57.006Z,25.53
2018-07-17T07:58:57.127Z,25.63
2018-07-17T07:59:57.356Z,25.80
2018-07-17T08:00:57.509Z,25.72
2018-07-17T08:01:57.706Z,25.75
2018-07-17T08:02:57.800Z,25.72
2018-07-17T08:03:58.061Z,25.83
2018-07-17T08:04:58.152Z,25.88
2018-07-17T08:05:58.368Z,25.75
2018-07-17T08:06:58.546Z,25.81
2018-07-17T08:07:58.676Z,25.96
2018-07-17T08:08:58.860Z,26.06
2018-07-17T08:09:59.058Z,26.03
2018-07-17T08:10:59.179Z,26.07
2018-07-17T08:11:59.368Z,26.05
2018-07-17T08:12:59.543Z,26.25
2018-07-17T08:13:59.707Z,26.29
2018-07-17T08:14:59.883Z,26.41
2018-07-17T08:16:00.043Z,26.51
2018-07-17T08:17:00.227Z,26.92
2018-07-17T08:18:00.387Z,27.18
2018-07-17T08:19:00.516Z,27.54
2018-07-17T08:20:00.779Z,27.82
2018-07-17T08:21:00.900Z,28.08
2018-07-17T08:22:01.049Z,28.15
2018-07-17T08:23:01.177Z,28.45
2018-07-17T08:24:01.372Z,28.91
2018-07-17T08:25:01.568Z,29.23
2018-07-17T08:26:01.657Z,29.63
2018-07-17T08:27:01.865Z,29.63
2018-07-17T08:28:02.001Z,29.94
2018-07-17T08:29:02.193Z,30.25
2018-07-17T08:30:02.387Z,30.51
2018-07-17T08:31:02.594Z,30.61
2018-07-17T08:32:02.790Z,30.87
2018-07-17T08:33:02.901Z,31.00
2018-07-17T08:34:03.065Z,31.43
2018-07-17T08:35:03.273Z,31.56
2018-07-17T08:36:03.458Z,31.74
2018-07-17T08:37:03.610Z,31.71
2018-07-17T08:38:03.857Z,31.92
2018-07-17T08:39:03.990Z,31.92
2018-07-17T08:40:04.153Z,32.04
2018-07-17T08:41:04.335Z,32.23
2018-07-17T08:42:04.532Z,32.33
2018-07-17T08:43:04.715Z,32.30
2018-07-17T08:44:04.827Z,32.41
2018-07-17T08:45:05.078Z,32.63
2018-07-17T08:46:05.232Z,32.86
2018-07-17T08:47:05.399Z,32.85
2018-07-17T08:48:05.584Z,33.02
2018-07-17T08:49:05.783Z,33.04
2018-07-17T08:50:05.885Z,33.07
2018-07-17T08:51:06.120Z,33.07
2018-07-17T08:52:06.202Z,32.89
2018-07-17T08:53:06.444Z,32.53
2018-07-17T08:54:06.582Z,32.29
2018-07-17T08:55:06.719Z,32.27
2018-07-17T08:56:06.881Z,32.16
2018-07-17T08:57:07.169Z,32.00
2018-07-17T08:58:07.273Z,31.46
2018-07-17T08:59:07.464Z,31.22
2018-07-17T09:00:07.594Z,30.69
2018-07-17T09:01:07.802Z,30.55
2018-07-17T09:02:08.026Z,30.18
2018-07-17T09:03:08.148Z,30.23
2018-07-17T09:04:08.276Z,30.05
2018-07-17T09:05:08.550Z,29.90
2018-07-17T09:06:08.667Z,29.97
2018-07-17T09:07:08.897Z,30.09
2018-07-17T09:08:08.996Z,30.18
2018-07-17T09:09:09.237Z,30.28
2018-07-17T09:10:09.330Z,30.27
2018-07-17T09:11:09.533Z,30.44
2018-07-17T09:12:09.653Z,30.48
2018-07-17T09:13:09.959Z,30.55
2018-07-17T09:14:10.057Z,30.54
2018-07-17T09:15:10.268Z,30.65
2018-07-17T09:16:10.477Z,30.57
2018-07-17T09:17:10.595Z,30.65
2018-07-17T09:18:10.752Z,30.59
2018-07-17T09:19:10.949Z,30.66
2018-07-17T09:20:11.144Z,30.54
2018-07-17T09:21:11.304Z,30.65
2018-07-17T09:22:11.527Z,30.75
2018-07-17T09:23:11.684Z,30.70
2018-07-17T09:24:11.795Z,30.87
2018-07-17T09:25:12.018Z,30.94
2018-07-17T09:26:12.201Z,31.03
2018-07-17T09:27:12.382Z,30.91
2018-07-17T09:28:12.649Z,30.84
2018-07-17T09:29:12.740Z,30.91
2018-07-17T09:30:12.972Z,30.99
2018-07-17T09:31:13.080Z,31.02
2018-07-17T09:32:13.279Z,31.22
2018-07-17T09:33:13.403Z,31.24
2018-07-17T09:34:13.605Z,31.14
2018-07-17T09:35:13.752Z,31.29
2018-07-17T09:36:13.943Z,31.20
2018-07-17T09:37:14.232Z,31.25
2018-07-17T09:38:14.380Z,31.14
2018-07-17T09:39:14.637Z,31.36
2018-07-17T09:40:14.845Z,31.37
2018-07-17T09:41:15.041Z,31.43
2018-07-17T09:42:15.133Z,31.49
2018-07-17T09:43:15.309Z,31.46
2018-07-17T09:44:15.571Z,31.55
2018-07-17T09:45:15.714Z,31.58
2018-07-17T09:46:15.906Z,31.70
2018-07-17T09:47:16.043Z,31.76
2018-07-17T09:48:16.244Z,31.80
2018-07-17T09:49:16.440Z,31.94
2018-07-17T09:50:16.564Z,32.07
2018-07-17T09:51:16.805Z,32.04
2018-07-17T09:52:16.971Z,32.16
2018-07-17T09:53:17.099Z,32.30
2018-07-17T09:54:17.234Z,32.34
2018-07-17T09:55:17.446Z,31.99
2018-07-17T09:56:17.638Z,32.03
2018-07-17T09:57:17.796Z,32.09
2018-07-17T09:58:18.024Z,32.31
2018-07-17T09:59:18.126Z,32.49
2018-07-17T10:00:18.344Z,32.56
2018-07-17T10:01:18.448Z,32.68
2018-07-17T10:02:18.738Z,32.77
2018-07-17T10:03:18.879Z,32.96
2018-07-17T10:04:19.085Z,33.11
2018-07-17T10:05:19.244Z,33.28
2018-07-17T10:06:19.430Z,33.42
2018-07-17T10:07:19.573Z,33.53
2018-07-17T10:08:19.774Z,33.81
2018-07-17T10:09:19.930Z,33.69
2018-07-17T10:10:20.121Z,33.76
2018-07-17T10:11:20.308Z,34.03
2018-07-17T10:12:20.466Z,33.87
2018-07-17T10:13:20.535Z,34.18
2018-07-17T10:14:20.786Z,34.33
2018-07-17T10:15:20.969Z,34.29
2018-07-17T10:16:21.097Z,34.50
2018-07-17T10:17:21.339Z,34.52
2018-07-17T10:18:21.460Z,34.73
2018-07-17T10:19:21.608Z,35.04
2018-07-17T10:20:21.913Z,35.30
2018-07-17T10:21:21.945Z,35.27
2018-07-17T10:22:22.127Z,35.51
2018-07-17T10:23:22.328Z,35.78
2018-07-17T10:24:22.521Z,36.09
2018-07-17T10:25:22.614Z,36.20
2018-07-17T10:26:22.921Z,36.43
2018-07-17T10:27:23.004Z,36.67
2018-07-17T10:28:23.219Z,36.73
2018-07-17T10:29:23.340Z,36.77
2018-07-17T10:30:23.562Z,36.88
2018-07-17T10:31:23.750Z,37.01
2018-07-17T10:32:23.886Z,37.17
2018-07-17T10:33:24.094Z,37.33
2018-07-17T10:34:24.306Z,37.56
2018-07-17T10:35:24.451Z,37.64
2018-07-17T10:36:24.633Z,37.56
2018-07-17T10:37:24.871Z,37.71
2018-07-17T10:38:25.058Z,37.39
2018-07-17T10:39:25.170Z,37.49
2018-07-17T10:40:25.386Z,37.25
2018-07-17T10:41:25.564Z,37.42
2018-07-17T10:42:25.755Z,37.42
2018-07-17T10:43:25.876Z,37.28
2018-07-17T10:44:26.169Z,37.37
2018-07-17T10:45:26.316Z,36.96
2018-07-17T10:46:26.510Z,37.18
2018-07-17T10:47:26.755Z,37.33
2018-07-17T10:48:26.901Z,37.51
2018-07-17T10:49:27.017Z,37.63
2018-07-17T10:50:27.196Z,37.40
2018-07-17T10:51:27.329Z,37.68
2018-07-17T10:52:27.511Z,37.71
2018-07-17T10:53:27.681Z,37.84
2018-07-17T10:54:27.882Z,37.87
2018-07-17T10:55:28.013Z,37.90
2018-07-17T10:56:28.260Z,37.86
2018-07-17T10:57:28.447Z,37.77
2018-07-17T10:58:28.581Z,37.67
2018-07-17T10:59:28.821Z,37.32
2018-07-17T11:00:28.983Z,37.64
2018-07-17T11:01:29.099Z,37.92
2018-07-17T11:02:29.341Z,38.08
2018-07-17T11:03:29.585Z,38.26
2018-07-17T11:04:29.761Z,38.06
2018-07-17T11:05:29.876Z,38.33
2018-07-17T11:06:30.037Z,38.21
2018-07-17T11:07:30.276Z,38.34
2018-07-17T11:08:30.508Z,38.19
2018-07-17T11:09:30.595Z,38.27
2018-07-17T11:10:30.738Z,38.26
2018-07-17T11:11:30.924Z,38.27
2018-07-17T11:12:31.121Z,38.30
2018-07-17T11:13:31.319Z,38.15
2018-07-17T11:14:31.444Z,38.15
2018-07-17T11:15:31.631Z,38.40
2018-07-17T11:16:31.801Z,38.61
2018-07-17T11:17:31.994Z,38.62
2018-07-17T11:18:32.182Z,38.74
2018-07-17T11:19:32.431Z,39.00
2018-07-17T11:20:32.595Z,38.80
2018-07-17T11:21:32.784Z,38.76
2018-07-17T11:22:32.941Z,38.99
2018-07-17T11:23:33.209Z,38.87
2018-07-17T11:24:33.350Z,38.83
2018-07-17T11:25:33.528Z,38.84
2018-07-17T11:26:33.654Z,39.06
2018-07-17T11:27:33.869Z,38.83
2018-07-17T11:28:34.100Z,38.52
2018-07-17T11:29:34.217Z,38.82
2018-07-17T11:30:34.411Z,39.03
2018-07-17T11:31:34.588Z,39.06
2018-07-17T11:32:34.828Z,39.06
2018-07-17T11:33:34.968Z,39.14
2018-07-17T11:34:35.146Z,39.12
2018-07-17T11:35:35.351Z,38.99
2018-07-17T11:36:35.501Z,39.11
2018-07-17T11:37:35.673Z,38.96
2018-07-17T11:38:35.928Z,38.79
2018-07-17T11:39:36.106Z,39.17
2018-07-17T11:40:36.253Z,39.15
2018-07-17T11:41:36.473Z,39.22
2018-07-17T11:42:36.630Z,39.18
2018-07-17T11:43:36.790Z,39.25
2018-07-17T11:44:36.996Z,39.40
2018-07-17T11:45:37.171Z,39.46
2018-07-17T11:46:37.427Z,39.85
2018-07-17T11:47:37.587Z,40.08
2018-07-17T11:48:37.770Z,39.89
2018-07-17T11:49:37.921Z,39.94
2018-07-17T11:50:38.220Z,39.60
2018-07-17T11:51:38.362Z,39.49
2018-07-17T11:52:38.490Z,39.72
2018-07-17T11:53:38.708Z,39.65
2018-07-17T11:54:38.904Z,39.71
2018-07-17T11:55:39.033Z,39.53
2018-07-17T11:56:39.308Z,39.77
2018-07-17T11:57:39.420Z,39.97
2018-07-17T11:58:39.698Z,39.75
2018-07-17T11:59:39.937Z,39.80
2018-07-17T12:00:40.043Z,39.89
2018-07-17T12:01:40.240Z,39.19
2018-07-17T12:02:40.403Z,38.65
2018-07-17T12:03:40.585Z,37.82
2018-07-17T12:04:40.838Z,38.08
2018-07-17T12:05:40.955Z,38.40
2018-07-17T12:06:41.104Z,37.89
2018-07-17T12:07:41.267Z,37.40
2018-07-17T12:08:41.453Z,37.14
2018-07-17T12:09:41.725Z,37.78
2018-07-17T12:10:41.817Z,38.54
2018-07-17T12:11:41.980Z,38.92
2018-07-17T12:12:42.182Z,39.21
2018-07-17T12:13:42.404Z,38.76
2018-07-17T12:14:42.517Z,38.14
2018-07-17T12:15:42.735Z,37.93
2018-07-17T12:16:42.871Z,38.38
2018-07-17T12:17:43.100Z,38.79
2018-07-17T12:18:43.313Z,38.43
2018-07-17T12:19:43.490Z,38.30
2018-07-17T12:20:43.691Z,38.14
2018-07-17T12:21:43.773Z,38.46
2018-07-17T12:22:43.979Z,38.76
2018-07-17T12:23:44.180Z,39.36
2018-07-17T12:24:44.294Z,38.54
2018-07-17T12:25:44.528Z,38.05
2018-07-17T12:26:44.709Z,37.48
2018-07-17T12:27:44.854Z,36.77
2018-07-17T12:28:45.002Z,36.51
2018-07-17T12:29:45.258Z,36.14
2018-07-17T12:30:45.415Z,36.68
2018-07-17T12:31:45.668Z,36.72
2018-07-17T12:32:45.724Z,36.54
2018-07-17T12:33:45.955Z,36.99
2018-07-17T12:34:46.105Z,37.70
2018-07-17T12:35:46.327Z,38.19
2018-07-17T12:36:46.505Z,38.42
2018-07-17T12:37:46.718Z,38.52
2018-07-17T12:38:46.915Z,38.80
2018-07-17T12:39:47.067Z,38.92
2018-07-17T12:40:47.236Z,39.15
2018-07-17T12:41:47.382Z,39.40
2018-07-17T12:42:47.651Z,39.71
2018-07-17T12:43:47.827Z,39.80
2018-07-17T12:44:48.011Z,39.78
2018-07-17T12:45:48.251Z,39.65
2018-07-17T12:46:48.334Z,39.26
2018-07-17T12:47:48.557Z,38.97
2018-07-17T12:48:48.758Z,38.50
2018-07-17T12:49:49.819Z,37.80
2018-07-17T12:50:49.236Z,37.72
2018-07-17T12:51:49.383Z,37.37
2018-07-17T12:52:49.513Z,36.88
2018-07-17T12:53:49.896Z,36.49
2018-07-17T12:54:50.007Z,36.17
2018-07-17T12:55:50.151Z,35.60
2018-07-17T12:56:50.351Z,35.55
2018-07-17T12:57:50.601Z,35.61
2018-07-17T12:58:50.700Z,35.39
2018-07-17T12:59:50.854Z,35.82
2018-07-17T13:00:51.085Z,36.33
2018-07-17T13:01:51.260Z,36.99
2018-07-17T13:02:51.444Z,37.51
2018-07-17T13:03:51.567Z,38.04
2018-07-17T13:04:51.794Z,38.45
2018-07-17T13:05:51.984Z,38.67
2018-07-17T13:06:52.120Z,39.15
2018-07-17T13:07:52.295Z,39.30
2018-07-17T13:08:52.602Z,39.24
2018-07-17T13:09:52.735Z,39.26
2018-07-17T13:10:52.845Z,39.14
2018-07-17T13:11:53.016Z,39.31
2018-07-17T13:12:53.182Z,39.53
2018-07-17T13:13:53.394Z,39.59
2018-07-17T13:14:53.653Z,39.49
2018-07-17T13:15:53.745Z,38.33
2018-07-17T13:16:53.938Z,37.72
2018-07-17T13:17:54.099Z,38.04
2018-07-17T13:18:54.266Z,38.08
2018-07-17T13:19:54.448Z,38.24
2018-07-17T13:20:54.587Z,38.62
2018-07-17T13:21:54.761Z,39.25
2018-07-17T13:22:54.992Z,39.59
2018-07-17T13:23:55.172Z,39.89
2018-07-17T13:24:55.322Z,39.09
2018-07-17T13:25:55.481Z,39.70
2018-07-17T13:26:55.655Z,40.30
2018-07-17T13:27:55.822Z,40.91
2018-07-17T13:28:55.986Z,41.31
2018-07-17T13:29:56.194Z,41.09
2018-07-17T13:30:56.317Z,40.34
2018-07-17T13:31:56.595Z,39.81
2018-07-17T13:32:56.801Z,39.21
2018-07-17T13:33:56.918Z,38.96
2018-07-17T13:34:57.149Z,38.89
2018-07-17T13:35:57.353Z,39.21
2018-07-17T13:36:58.070Z,38.96
2018-07-17T13:37:57.739Z,38.68
2018-07-17T13:38:57.868Z,39.11
2018-07-17T13:39:58.003Z,38.96
2018-07-17T13:40:58.155Z,38.84
2018-07-17T13:41:58.336Z,39.37
2018-07-17T13:42:58.645Z,39.17
2018-07-17T13:43:58.830Z,38.30
2018-07-17T13:44:58.961Z,37.45
2018-07-17T13:45:59.144Z,36.91
2018-07-17T13:46:59.300Z,36.28
2018-07-17T13:47:59.542Z,35.90
2018-07-17T13:48:59.676Z,35.58
2018-07-17T13:50:00.000Z,35.27
2018-07-17T13:51:00.092Z,35.29
2018-07-17T13:52:00.232Z,35.31
2018-07-17T13:53:00.423Z,35.37
2018-07-17T13:54:00.636Z,35.85
2018-07-17T13:55:00.895Z,36.05
2018-07-17T13:56:01.039Z,35.98
2018-07-17T13:57:01.241Z,35.70
2018-07-17T13:58:01.462Z,35.17
2018-07-17T13:59:01.613Z,35.08
2018-07-17T14:00:01.796Z,35.19
2018-07-17T14:01:01.946Z,35.14
2018-07-17T14:02:02.131Z,34.92
2018-07-17T14:03:02.266Z,34.77
2018-07-17T14:04:02.474Z,34.70
2018-07-17T14:05:02.673Z,34.55
2018-07-17T14:06:02.894Z,34.43
2018-07-17T14:07:03.136Z,34.27
2018-07-17T14:08:03.213Z,34.14
2018-07-17T14:09:03.355Z,33.95
2018-07-17T14:10:03.586Z,33.64
2018-07-17T14:11:03.742Z,33.53
2018-07-17T14:12:03.899Z,33.36
2018-07-17T14:13:04.161Z,33.28
2018-07-17T14:14:04.330Z,33.17
2018-07-17T14:15:04.439Z,33.08
2018-07-17T14:16:04.667Z,33.01
2018-07-17T14:17:04.852Z,32.92
2018-07-17T14:18:04.995Z,32.82
2018-07-17T14:19:05.120Z,32.67
2018-07-17T14:20:05.346Z,32.77
2018-07-17T14:21:05.599Z,32.51
2018-07-17T14:22:05.684Z,32.51
2018-07-17T14:23:05.921Z,32.40
2018-07-17T14:24:06.065Z,32.37
2018-07-17T14:25:06.259Z,32.31
2018-07-17T14:26:06.441Z,32.26
2018-07-17T14:27:06.624Z,32.30
2018-07-17T14:28:06.721Z,32.21
2018-07-17T14:29:07.048Z,32.23
2018-07-17T14:30:07.196Z,32.30
2018-07-17T14:31:07.303Z,32.37
2018-07-17T14:32:07.443Z,32.15
2018-07-17T14:33:07.671Z,32.19
2018-07-17T14:34:07.890Z,32.12
2018-07-17T14:35:07.966Z,32.19
2018-07-17T14:36:08.180Z,32.14
2018-07-17T14:37:08.430Z,32.19
2018-07-17T14:38:08.613Z,32.26
2018-07-17T14:39:08.802Z,32.23
2018-07-17T14:40:08.894Z,32.26
2018-07-17T14:41:09.088Z,32.38
2018-07-17T14:42:09.386Z,32.41
2018-07-17T14:43:09.560Z,32.37
2018-07-17T14:44:09.698Z,32.51
2018-07-17T14:45:09.880Z,32.58
2018-07-17T14:46:09.988Z,32.55
2018-07-17T14:47:10.198Z,32.67
2018-07-17T14:48:10.456Z,32.71
2018-07-17T14:49:10.615Z,32.70
2018-07-17T14:50:10.761Z,32.74
2018-07-17T14:51:11.056Z,33.43
2018-07-17T14:52:11.092Z,34.32
2018-07-17T14:53:11.301Z,35.12
2018-07-17T14:54:11.471Z,35.88
2018-07-17T14:55:11.677Z,35.97
2018-07-17T14:56:11.841Z,35.67
2018-07-17T14:57:12.025Z,35.30
2018-07-17T14:58:12.168Z,35.10
2018-07-17T14:59:12.325Z,35.05
2018-07-17T15:00:12.483Z,35.36
2018-07-17T15:01:12.736Z,35.61
2018-07-17T15:02:12.865Z,36.02
2018-07-17T15:03:13.066Z,36.02
2018-07-17T15:04:13.190Z,35.90
2018-07-17T15:05:13.402Z,35.70
2018-07-17T15:06:13.576Z,35.44
2018-07-17T15:07:13.786Z,35.18
2018-07-17T15:08:14.069Z,34.58
2018-07-17T15:09:14.076Z,34.88
2018-07-17T15:10:14.323Z,35.18
2018-07-17T15:11:14.492Z,34.99
2018-07-17T15:12:14.713Z,34.57
2018-07-17T15:13:14.854Z,33.96
2018-07-17T15:14:14.998Z,33.59
2018-07-17T15:15:15.167Z,33.40
2018-07-17T15:16:15.324Z,33.17
2018-07-17T15:17:15.549Z,32.83
2018-07-17T15:18:15.672Z,32.80
2018-07-17T15:19:15.851Z,32.59
2018-07-17T15:20:16.037Z,32.40
2018-07-17T15:21:16.252Z,32.49
2018-07-17T15:22:16.471Z,32.37
2018-07-17T15:23:16.554Z,32.73
2018-07-17T15:24:16.734Z,32.80
2018-07-17T15:25:16.928Z,32.82
2018-07-17T15:26:17.048Z,32.92
2018-07-17T15:27:17.280Z,33.39
2018-07-17T15:28:17.509Z,33.23
2018-07-17T15:29:17.626Z,33.31
2018-07-17T15:30:17.841Z,33.32
2018-07-17T15:31:17.936Z,33.47
2018-07-17T15:32:18.124Z,33.42
2018-07-17T15:33:18.381Z,33.37
2018-07-17T15:34:18.597Z,33.15
2018-07-17T15:35:18.740Z,33.14
2018-07-17T15:36:18.905Z,32.96
2018-07-17T15:37:19.152Z,32.78
2018-07-17T15:38:19.299Z,32.58
2018-07-17T15:39:19.498Z,32.48
2018-07-17T15:40:19.709Z,32.15
2018-07-17T15:41:19.926Z,31.85
2018-07-17T15:42:20.072Z,31.74
2018-07-17T15:43:20.301Z,31.55
2018-07-17T15:44:20.377Z,31.47
2018-07-17T15:45:20.698Z,31.47
2018-07-17T15:46:20.865Z,31.31
2018-07-17T15:47:20.972Z,31.33
2018-07-17T15:48:21.181Z,31.28
2018-07-17T15:49:21.301Z,31.25
2018-07-17T15:50:21.468Z,31.18
2018-07-17T15:51:21.630Z,31.17
2018-07-17T15:52:21.876Z,30.97
2018-07-17T15:53:22.043Z,30.94
2018-07-17T15:54:22.232Z,30.83
2018-07-17T15:55:22.426Z,30.84
2018-07-17T15:56:22.657Z,30.85
2018-07-17T15:57:22.763Z,30.80
2018-07-17T15:58:22.925Z,30.81
2018-07-17T15:59:23.053Z,30.80
2018-07-17T16:00:23.286Z,30.73
2018-07-17T16:01:23.481Z,30.62
2018-07-17T16:02:23.656Z,30.63
2018-07-17T16:03:23.835Z,30.63
2018-07-17T16:04:23.991Z,30.78
2018-07-17T16:05:24.164Z,30.72
2018-07-17T16:06:24.347Z,30.69
2018-07-17T16:07:24.588Z,30.75
2018-07-17T16:08:24.854Z,30.88
2018-07-17T16:09:24.904Z,30.90